createdAt,value
2022-10-20T00:00:44.043Z,7.20
2022-10-20T00:08:05.274Z,7.20
2022-10-20T00:10:32.057Z,7.20
2022-10-20T00:12:58.825Z,7.20
2022-10-20T00:15:25.663Z,7.20
2022-10-20T00:17:54.466Z,7.30
2022-10-20T00:20:21.349Z,7.20
2022-10-20T00:22:48.159Z,7.20
2022-10-20T00:25:15.178Z,7.10
2022-10-20T00:27:42.052Z,7.10
2022-10-20T00:30:10.646Z,7.10
2022-10-20T00:32:37.861Z,7.10
2022-10-20T00:35:07.349Z,7.10
2022-10-20T00:37:34.146Z,7.10
2022-10-20T00:42:28.102Z,7.10
2022-10-20T00:44:57.233Z,7.00
2022-10-20T00:47:37.448Z,7.50
2022-10-20T00:50:11.897Z,7.00
2022-10-20T00:52:39.667Z,6.90
2022-10-20T00:55:08.539Z,6.80
2022-10-20T00:57:36.107Z,6.90
2022-10-20T01:00:05.386Z,6.90
2022-10-20T01:04:59.666Z,6.90
2022-10-20T01:07:27.907Z,6.90
2022-10-20T01:09:54.812Z,6.90
2022-10-20T01:12:28.425Z,6.90
2022-10-20T01:15:02.865Z,6.90
2022-10-20T01:17:42.433Z,6.80
2022-10-20T01:20:37.701Z,6.90
2022-10-20T01:23:33.938Z,6.80
2022-10-20T01:26:20.979Z,6.70
2022-10-20T01:28:57.688Z,6.80
2022-10-20T01:31:30.085Z,6.70
2022-10-20T01:34:03.834Z,6.70
2022-10-20T01:36:35.243Z,6.70
2022-10-20T01:39:07.599Z,6.60
2022-10-20T01:41:39.215Z,6.60
2022-10-20T01:44:26.609Z,6.70
2022-10-20T01:46:55.365Z,6.70
2022-10-20T01:49:23.780Z,6.70
2022-10-20T01:54:22.713Z,6.70
2022-10-20T01:57:03.281Z,6.70
2022-10-20T01:59:47.303Z,6.70
2022-10-20T02:02:33.761Z,6.70
2022-10-20T02:05:13.301Z,6.70
2022-10-20T02:07:41.878Z,6.70
2022-10-20T02:10:14.636Z,6.80
2022-10-20T02:12:43.958Z,7.00
2022-10-20T02:15:16.556Z,7.60
2022-10-20T02:17:46.947Z,6.80
2022-10-20T02:20:14.197Z,6.80
2022-10-20T02:22:41.121Z,6.80
2022-10-20T02:25:10.724Z,6.90
2022-10-20T02:27:41.006Z,6.90
2022-10-20T02:30:11.203Z,7.00
2022-10-20T02:32:41.359Z,7.00
2022-10-20T02:35:10.587Z,7.00
2022-10-20T02:37:37.754Z,7.00
2022-10-20T02:40:05.421Z,7.00
2022-10-20T02:42:32.193Z,7.00
2022-10-20T02:44:58.991Z,7.00
2022-10-20T02:47:25.748Z,7.00
2022-10-20T02:49:53.899Z,7.00
2022-10-20T02:52:20.690Z,6.90
2022-10-20T02:54:47.545Z,6.90
2022-10-20T02:57:14.324Z,6.90
2022-10-20T02:59:41.108Z,6.90
2022-10-20T03:02:07.993Z,6.90
2022-10-20T03:07:03.652Z,6.80
2022-10-20T03:09:30.448Z,6.80
2022-10-20T03:11:57.224Z,6.80
2022-10-20T03:14:24.019Z,6.80
2022-10-20T03:16:50.796Z,6.80
2022-10-20T03:19:17.565Z,6.70
2022-10-20T03:21:44.385Z,6.70
2022-10-20T03:24:12.552Z,6.70
2022-10-20T03:31:33.631Z,6.60
2022-10-20T03:34:00.438Z,6.70
2022-10-20T03:36:27.273Z,6.80
2022-10-20T03:38:54.082Z,6.70
2022-10-20T03:41:22.266Z,6.70
2022-10-20T03:51:13.174Z,6.60
2022-10-20T03:56:08.486Z,6.40
2022-10-20T03:58:36.665Z,7.10
2022-10-20T04:01:04.418Z,6.40
2022-10-20T04:05:58.295Z,6.40
2022-10-20T04:10:52.344Z,6.30
2022-10-20T04:13:19.109Z,6.30
2022-10-20T04:15:47.218Z,6.20
2022-10-20T04:18:13.974Z,6.10
2022-10-20T04:20:43.645Z,6.10
2022-10-20T04:23:11.584Z,6.10
2022-10-20T04:25:40.577Z,6.20
2022-10-20T04:30:34.461Z,6.20
2022-10-20T04:33:02.600Z,6.20
2022-10-20T04:40:23.761Z,6.40
2022-10-20T04:45:17.796Z,6.30
2022-10-20T04:47:44.544Z,6.30
2022-10-20T04:50:25.287Z,6.30
2022-10-20T04:52:53.493Z,6.30
2022-10-20T04:55:20.414Z,7.90
2022-10-20T05:00:15.383Z,6.30
2022-10-20T05:02:42.169Z,6.20
2022-10-20T05:05:09.605Z,7.70
2022-10-20T05:10:06.606Z,6.30
2022-10-20T05:12:33.823Z,6.30
2022-10-20T05:17:29.330Z,6.30
2022-10-20T05:22:23.404Z,6.30
2022-10-20T05:27:19.078Z,6.30
2022-10-20T05:32:13.212Z,6.30
2022-10-20T05:37:07.272Z,6.40
2022-10-20T05:42:01.314Z,6.30
2022-10-20T05:44:29.852Z,6.30
2022-10-20T05:46:56.712Z,8.20
2022-10-20T05:51:50.857Z,6.30
2022-10-20T05:54:17.761Z,6.20
2022-10-20T06:00:18.817Z,6.20
2022-10-20T06:02:50.139Z,6.00
2022-10-20T06:05:16.972Z,5.90
2022-10-20T06:18:52.733Z,6.40
2022-10-20T06:21:23.728Z,6.50
2022-10-20T06:23:54.110Z,6.30
2022-10-20T06:26:22.607Z,6.40
2022-10-20T06:28:52.563Z,6.40
2022-10-20T06:31:20.950Z,6.30
2022-10-20T06:33:49.699Z,6.90
2022-10-20T06:41:13.195Z,6.40
2022-10-20T06:43:40.091Z,8.00
2022-10-20T06:46:11.075Z,6.50
2022-10-20T06:48:38.213Z,6.50
2022-10-20T06:51:08.080Z,6.40
2022-10-20T06:53:36.237Z,6.50
2022-10-20T06:56:06.355Z,6.60
2022-10-20T06:58:33.783Z,6.60
2022-10-20T07:01:02.604Z,6.70
2022-10-20T07:03:32.821Z,6.70
2022-10-20T07:06:00.356Z,6.80
2022-10-20T07:08:30.586Z,6.90
2022-10-20T07:11:03.174Z,7.80
2022-10-20T07:13:30.841Z,7.10
2022-10-20T07:15:58.816Z,7.10
2022-10-20T07:21:15.117Z,7.40
2022-10-20T07:23:44.187Z,7.30
2022-10-20T07:26:13.312Z,7.50
2022-10-20T07:28:42.622Z,7.60
2022-10-20T07:31:11.579Z,8.60
2022-10-20T07:36:12.292Z,7.80
2022-10-20T07:41:08.944Z,7.90
2022-10-20T07:43:36.375Z,8.00
2022-10-20T07:46:03.771Z,8.10
2022-10-20T07:48:30.619Z,8.10
2022-10-20T07:51:25.170Z,8.10
2022-10-20T07:53:56.895Z,8.30
2022-10-20T07:56:29.653Z,8.20
2022-10-20T07:58:56.771Z,8.30
2022-10-20T08:03:51.201Z,8.40
2022-10-20T08:13:51.310Z,8.70
2022-10-20T08:23:16.675Z,9.00
2022-10-20T08:28:11.212Z,8.90
2022-10-20T08:30:39.439Z,10.50
2022-10-20T08:33:06.375Z,9.10
2022-10-20T08:40:30.780Z,9.30
2022-10-20T08:42:58.066Z,9.90
2022-10-20T08:45:26.983Z,10.80
2022-10-20T08:47:57.865Z,9.60
2022-10-20T08:50:28.332Z,11.30
2022-10-20T08:52:59.231Z,10.40
2022-10-20T08:55:29.157Z,10.00
2022-10-20T08:58:01.332Z,10.10
2022-10-20T09:00:30.973Z,10.20
2022-10-20T09:03:10.018Z,10.30
2022-10-20T09:08:04.487Z,10.70
2022-10-20T09:10:35.023Z,10.80
2022-10-20T09:13:05.350Z,10.90
2022-10-20T09:15:32.902Z,10.90
2022-10-20T09:18:04.854Z,12.90
2022-10-20T09:20:38.434Z,11.10
2022-10-20T09:23:16.573Z,12.30
2022-10-20T09:25:50.680Z,12.10
2022-10-20T09:28:22.406Z,12.90
2022-10-20T09:33:29.535Z,11.40
2022-10-20T09:36:04.121Z,11.40
2022-10-20T09:38:34.360Z,11.50
2022-10-20T09:41:10.269Z,12.10
2022-10-20T09:44:41.599Z,12.70
2022-10-20T09:47:13.583Z,12.00
2022-10-20T09:49:43.836Z,13.30
2022-10-20T09:52:17.809Z,12.30
2022-10-20T09:54:47.265Z,12.10
2022-10-20T09:57:18.280Z,13.40
2022-10-20T09:59:46.981Z,12.40
2022-10-20T10:02:30.404Z,12.60
2022-10-20T10:08:00.157Z,14.20
2022-10-20T10:10:29.475Z,12.70
2022-10-20T10:13:00.628Z,12.80
2022-10-20T10:15:31.027Z,14.60
2022-10-20T10:17:59.379Z,12.90
2022-10-20T10:20:32.999Z,12.90
2022-10-20T10:23:26.098Z,13.00
2022-10-20T10:25:56.605Z,13.10
2022-10-20T10:28:33.244Z,13.20
2022-10-20T10:31:25.118Z,14.60
2022-10-20T10:33:56.513Z,13.20
2022-10-20T10:36:33.778Z,13.10
2022-10-20T10:39:04.010Z,13.30
2022-10-20T10:41:49.954Z,13.40
2022-10-20T10:44:27.009Z,13.40
2022-10-20T10:47:01.159Z,13.40
2022-10-20T10:49:55.384Z,14.60
2022-10-20T10:52:33.876Z,13.30
2022-10-20T10:55:30.495Z,14.40
2022-10-20T10:58:10.558Z,13.30
2022-10-20T11:00:46.377Z,13.30
2022-10-20T11:03:29.044Z,13.50
2022-10-20T11:06:06.330Z,14.80
2022-10-20T11:08:49.120Z,13.50
2022-10-20T11:11:31.035Z,13.50
2022-10-20T11:14:10.790Z,13.70
2022-10-20T11:16:43.478Z,13.70
2022-10-20T11:19:34.112Z,13.80
2022-10-20T11:22:14.291Z,13.90
2022-10-20T11:24:49.368Z,14.50
2022-10-20T11:27:22.197Z,14.00
2022-10-20T11:29:53.715Z,14.90
2022-10-20T11:32:26.938Z,14.20
2022-10-20T11:35:03.022Z,14.30
2022-10-20T11:37:32.660Z,14.50
2022-10-20T11:40:08.699Z,14.50
2022-10-20T11:42:43.152Z,14.50
2022-10-20T11:45:26.672Z,14.60
2022-10-20T11:48:00.361Z,14.80
2022-10-20T11:53:06.480Z,14.60
2022-10-20T11:56:03.916Z,14.60
2022-10-20T11:58:47.397Z,14.40
2022-10-20T12:01:29.739Z,14.40
2022-10-20T12:04:34.404Z,14.40
2022-10-20T12:07:42.288Z,14.30
2022-10-20T12:10:33.870Z,14.30
2022-10-20T12:13:11.241Z,15.40
2022-10-20T12:15:47.168Z,14.50
2022-10-20T12:18:27.661Z,15.50
2022-10-20T12:21:02.428Z,14.60
2022-10-20T12:24:03.058Z,14.50
2022-10-20T12:26:51.977Z,14.70
2022-10-20T12:29:57.650Z,14.80
2022-10-20T12:33:09.442Z,14.90
2022-10-20T12:35:58.635Z,14.90
2022-10-20T12:38:25.888Z,14.40
2022-10-20T12:40:57.982Z,14.90
2022-10-20T12:43:29.228Z,14.90
2022-10-20T12:45:59.562Z,14.90
2022-10-20T12:48:28.110Z,15.00
2022-10-20T12:51:04.471Z,14.90
2022-10-20T12:53:31.611Z,14.90
2022-10-20T12:56:03.139Z,15.70
2022-10-20T12:58:32.440Z,15.00
2022-10-20T13:01:10.918Z,15.20
2022-10-20T13:03:47.258Z,15.10
2022-10-20T13:06:40.008Z,15.20
2022-10-20T13:09:24.957Z,15.10
2022-10-20T13:12:04.358Z,15.10
2022-10-20T13:14:48.374Z,15.00
2022-10-20T13:17:22.848Z,15.00
2022-10-20T13:20:01.295Z,15.20
2022-10-20T13:22:40.738Z,15.20
2022-10-20T13:25:16.530Z,15.30
2022-10-20T13:30:18.746Z,15.20
2022-10-20T13:33:11.318Z,15.20
2022-10-20T13:35:52.214Z,15.70
2022-10-20T13:38:23.611Z,14.90
2022-10-20T13:40:59.194Z,15.00
2022-10-20T13:43:32.292Z,15.00
2022-10-20T13:46:31.691Z,16.10
2022-10-20T13:49:16.732Z,15.00
2022-10-20T13:51:49.701Z,15.00
2022-10-20T13:54:22.483Z,14.90
2022-10-20T13:56:50.482Z,14.70
2022-10-20T14:01:52.159Z,14.70
2022-10-20T14:04:28.220Z,14.70
2022-10-20T14:07:01.643Z,14.50
2022-10-20T14:12:00.771Z,14.50
2022-10-20T14:14:29.840Z,14.50
2022-10-20T14:16:59.199Z,15.20
2022-10-20T14:19:30.742Z,15.70
2022-10-20T14:22:09.564Z,14.40
2022-10-20T14:24:41.914Z,14.50
2022-10-20T14:27:18.604Z,15.60
2022-10-20T14:29:46.262Z,14.30
2022-10-20T14:32:18.610Z,14.30
2022-10-20T14:34:55.242Z,15.80
2022-10-20T14:37:30.203Z,14.20
2022-10-20T14:40:01.033Z,14.40
2022-10-20T14:42:31.825Z,14.30
2022-10-20T14:45:00.944Z,14.20
2022-10-20T14:47:32.650Z,14.30
2022-10-20T14:52:35.441Z,14.20
2022-10-20T14:57:38.895Z,14.20
2022-10-20T15:00:32.261Z,14.10
2022-10-20T15:03:03.081Z,14.10
2022-10-20T15:05:42.348Z,14.10
2022-10-20T15:08:24.160Z,14.10
2022-10-20T15:13:26.683Z,14.00
2022-10-20T15:15:56.403Z,14.10
2022-10-20T15:18:24.806Z,14.10
2022-10-20T15:20:52.822Z,14.10
2022-10-20T15:23:22.402Z,14.10
2022-10-20T15:25:52.252Z,14.00
2022-10-20T15:28:24.927Z,14.00
2022-10-20T15:33:19.528Z,14.00
2022-10-20T15:38:14.598Z,13.80
2022-10-20T15:40:43.130Z,13.70
2022-10-20T15:43:12.802Z,13.70
2022-10-20T15:45:43.971Z,13.40
2022-10-20T15:50:39.057Z,13.30
2022-10-20T15:55:34.870Z,13.40
2022-10-20T15:58:03.302Z,14.70
2022-10-20T16:05:26.164Z,13.40
2022-10-20T16:07:54.801Z,13.30
2022-10-20T16:10:23.348Z,13.30
2022-10-20T16:15:19.057Z,13.20
2022-10-20T16:25:10.068Z,13.20
2022-10-20T16:30:06.354Z,13.30
2022-10-20T16:32:35.603Z,13.20
2022-10-20T16:35:03.448Z,15.00
2022-10-20T16:44:53.280Z,13.40
2022-10-20T16:49:48.677Z,13.40
2022-10-20T16:52:15.982Z,13.40
2022-10-20T17:02:06.261Z,13.50
2022-10-20T17:07:01.809Z,13.50
2022-10-20T17:09:29.971Z,13.40
2022-10-20T17:11:57.144Z,13.50
2022-10-20T17:14:24.112Z,13.40
2022-10-20T17:21:45.573Z,13.40
2022-10-20T17:24:14.300Z,13.30
2022-10-20T17:31:37.010Z,13.40
2022-10-20T17:34:18.258Z,13.40
2022-10-20T17:39:17.304Z,12.00
2022-10-20T17:41:44.242Z,14.10
2022-10-20T17:44:13.998Z,13.30
2022-10-20T17:46:43.140Z,13.40
2022-10-20T17:54:05.197Z,13.10
2022-10-20T17:56:35.857Z,14.30
2022-10-20T17:59:05.329Z,13.20
2022-10-20T18:01:38.166Z,13.20
2022-10-20T18:04:07.411Z,13.00
2022-10-20T18:06:35.439Z,13.10
2022-10-20T18:09:08.945Z,13.10
2022-10-20T18:11:45.922Z,13.00
2022-10-20T18:14:20.937Z,12.90
2022-10-20T18:16:52.154Z,13.00
2022-10-20T18:24:18.325Z,13.00
2022-10-20T18:26:47.438Z,13.80
2022-10-20T18:29:16.274Z,13.90
2022-10-20T18:31:44.727Z,12.90
2022-10-20T18:34:13.989Z,14.10
2022-10-20T18:39:13.769Z,12.90
2022-10-20T18:41:42.500Z,13.00
2022-10-20T18:44:13.315Z,15.00
2022-10-20T18:46:40.761Z,13.20
2022-10-20T18:49:09.466Z,14.20
2022-10-20T18:54:05.634Z,12.90
2022-10-20T18:59:01.688Z,12.80
2022-10-20T19:01:31.675Z,13.10
2022-10-20T19:06:28.877Z,12.90
2022-10-20T19:08:57.801Z,14.10
2022-10-20T19:11:26.919Z,12.90
2022-10-20T19:13:54.652Z,13.00
2022-10-20T19:16:24.234Z,13.00
2022-10-20T19:18:55.411Z,12.90
2022-10-20T19:21:23.986Z,14.50
2022-10-20T19:23:53.295Z,13.00
2022-10-20T19:26:22.417Z,12.90
2022-10-20T19:28:57.533Z,13.00
2022-10-20T19:31:27.682Z,13.00
2022-10-20T19:33:58.098Z,14.10
2022-10-20T19:36:26.559Z,13.60
2022-10-20T19:38:53.809Z,12.90
2022-10-20T19:43:48.439Z,12.90
2022-10-20T19:46:17.432Z,12.90
2022-10-20T19:48:45.736Z,12.90
2022-10-20T19:51:14.573Z,12.90
2022-10-20T19:58:39.382Z,12.90
2022-10-20T20:01:08.812Z,12.80
2022-10-20T20:06:05.527Z,12.80
2022-10-20T20:08:33.967Z,12.80
2022-10-20T20:11:01.746Z,13.90
2022-10-20T20:13:28.583Z,14.00
2022-10-20T20:15:55.488Z,13.60
2022-10-20T20:20:49.637Z,12.70
2022-10-20T20:23:20.074Z,12.60
2022-10-20T20:25:53.947Z,13.30
2022-10-20T20:30:58.778Z,12.50
2022-10-20T20:35:56.048Z,12.50
2022-10-20T20:38:22.962Z,12.50
2022-10-20T20:40:49.732Z,12.50
2022-10-20T20:43:17.938Z,12.40
2022-10-20T20:48:12.022Z,12.40
2022-10-20T20:50:38.814Z,13.00
2022-10-20T20:53:05.653Z,12.30
2022-10-20T21:00:28.348Z,12.30
2022-10-20T21:05:27.378Z,12.20
2022-10-20T21:10:21.485Z,12.10
2022-10-20T21:12:48.287Z,12.10
2022-10-20T21:15:15.226Z,12.00
2022-10-20T21:17:43.362Z,12.70
2022-10-20T21:20:10.438Z,14.70
2022-10-20T21:22:37.517Z,12.10
2022-10-20T21:25:05.299Z,12.00
2022-10-20T21:27:32.109Z,12.10
2022-10-20T21:29:58.884Z,12.00
2022-10-20T21:32:25.997Z,12.10
2022-10-20T21:34:55.073Z,12.00
2022-10-20T21:37:22.804Z,12.00
2022-10-20T21:39:49.602Z,12.00
2022-10-20T21:44:43.630Z,12.00
2022-10-20T21:49:38.445Z,12.00
2022-10-20T21:52:06.708Z,12.00
2022-10-20T21:54:33.482Z,12.00
2022-10-20T21:57:00.417Z,11.90
2022-10-20T21:59:29.137Z,11.90
2022-10-20T22:01:57.375Z,12.80
2022-10-20T22:04:26.446Z,11.90
2022-10-20T22:09:22.747Z,11.90
2022-10-20T22:11:52.403Z,11.80
2022-10-20T22:14:19.584Z,11.80
2022-10-20T22:16:46.412Z,11.80
2022-10-20T22:19:15.123Z,11.80
2022-10-20T22:21:44.144Z,11.70
2022-10-20T22:24:11.455Z,11.70
2022-10-20T22:26:40.217Z,13.80
2022-10-20T22:29:09.539Z,12.30
2022-10-20T22:31:36.498Z,11.80
2022-10-20T22:34:03.367Z,12.30
2022-10-20T22:43:53.033Z,12.00
2022-10-20T22:46:20.045Z,11.90
2022-10-20T22:48:47.222Z,11.90
2022-10-20T22:53:41.929Z,11.90
2022-10-20T22:56:11.726Z,11.90
2022-10-20T22:58:39.331Z,12.50
2022-10-20T23:01:09.143Z,11.90
2022-10-20T23:03:36.161Z,11.90
2022-10-20T23:06:07.179Z,12.00
2022-10-20T23:08:38.197Z,11.90
2022-10-20T23:11:05.242Z,12.00
2022-10-20T23:13:32.289Z,13.40
2022-10-20T23:18:27.611Z,11.90
2022-10-20T23:23:25.141Z,11.90
2022-10-20T23:25:52.223Z,12.00
2022-10-20T23:28:19.885Z,12.10
2022-10-20T23:30:46.962Z,12.00
2022-10-20T23:33:13.823Z,12.10
2022-10-20T23:35:42.121Z,12.10
2022-10-20T23:38:10.131Z,12.10
2022-10-20T23:40:37.229Z,12.10
2022-10-20T23:43:04.122Z,12.10
2022-10-20T23:45:34.060Z,12.10
2022-10-20T23:48:03.914Z,12.10
2022-10-20T23:50:30.684Z,12.10
2022-10-20T23:52:58.829Z,12.20
2022-10-20T23:55:25.649Z,12.20
